createdAt,value
2023-04-28T00:00:12.548Z,2.50
2023-04-28T00:02:40.014Z,2.37
2023-04-28T00:05:07.514Z,2.25
2023-04-28T00:07:35.055Z,2.22
2023-04-28T00:10:02.318Z,2.30
2023-04-28T00:12:29.336Z,2.62
2023-04-28T00:14:56.551Z,2.78
2023-04-28T00:17:24.101Z,1.95
2023-04-28T00:19:51.339Z,2.78
2023-04-28T00:22:18.807Z,2.65
2023-04-28T00:24:46.199Z,2.83
2023-04-28T00:27:13.220Z,2.97
2023-04-28T00:29:40.349Z,2.45
2023-04-28T00:32:07.760Z,2.90
2023-04-28T00:34:37.417Z,2.40
2023-04-28T00:37:04.870Z,3.37
2023-04-28T00:39:32.198Z,2.40
2023-04-28T00:41:59.345Z,2.80
2023-04-28T00:44:26.350Z,2.90
2023-04-28T00:46:54.012Z,3.72
2023-04-28T00:49:21.068Z,3.90
2023-04-28T00:51:48.110Z,4.22
2023-04-28T00:54:15.728Z,4.57
2023-04-28T00:56:46.925Z,4.95
2023-04-28T00:59:13.988Z,5.87
2023-04-28T01:01:41.610Z,5.12
2023-04-28T01:04:09.311Z,5.75
2023-04-28T01:06:38.550Z,5.12
2023-04-28T01:09:07.481Z,5.37
2023-04-28T01:11:37.023Z,5.85
2023-04-28T01:14:04.624Z,5.53
2023-04-28T01:16:34.260Z,5.87
2023-04-28T01:19:03.314Z,4.80
2023-04-28T01:21:34.293Z,5.18
2023-04-28T01:24:02.091Z,5.03
2023-04-28T01:28:56.517Z,4.87
2023-04-28T01:31:24.044Z,5.20
2023-04-28T01:33:51.145Z,4.87
2023-04-28T01:36:18.207Z,5.60
2023-04-28T01:38:45.717Z,5.53
2023-04-28T01:41:14.604Z,6.25
2023-04-28T01:43:43.755Z,5.43
2023-04-28T01:46:11.268Z,5.45
2023-04-28T01:48:38.401Z,5.78
2023-04-28T01:51:06.336Z,5.15
2023-04-28T01:53:34.115Z,5.65
2023-04-28T01:56:01.455Z,5.93
2023-04-28T01:58:28.996Z,5.57
2023-04-28T02:00:56.976Z,5.50
2023-04-28T02:03:24.569Z,5.03
2023-04-28T02:05:51.743Z,6.60
2023-04-28T02:08:19.067Z,5.18
2023-04-28T02:10:46.425Z,6.00
2023-04-28T02:13:13.609Z,6.20
2023-04-28T02:15:44.400Z,5.45
2023-04-28T02:18:13.190Z,5.32
2023-04-28T02:20:40.948Z,4.97
2023-04-28T02:23:08.879Z,5.50
2023-04-28T02:25:35.995Z,6.00
2023-04-28T02:28:04.126Z,5.43
2023-04-28T02:30:34.830Z,5.00
2023-04-28T02:33:01.974Z,4.72
2023-04-28T02:35:29.320Z,4.70
2023-04-28T02:37:56.494Z,4.75
2023-04-28T02:40:23.552Z,5.00
2023-04-28T02:42:50.970Z,4.20
2023-04-28T02:45:17.963Z,5.37
2023-04-28T02:47:45.004Z,5.82
2023-04-28T02:50:12.404Z,5.65
2023-04-28T02:52:39.488Z,5.37
2023-04-28T02:55:07.110Z,6.00
2023-04-28T02:57:34.545Z,6.25
2023-04-28T03:00:02.132Z,6.32
2023-04-28T03:02:31.359Z,5.10
2023-04-28T03:04:58.845Z,4.85
2023-04-28T03:07:26.019Z,6.28
2023-04-28T03:09:53.713Z,5.28
2023-04-28T03:12:21.100Z,4.82
2023-04-28T03:14:48.206Z,5.18
2023-04-28T03:17:16.234Z,5.25
2023-04-28T03:19:43.630Z,5.55
2023-04-28T03:22:11.204Z,5.05
2023-04-28T03:24:38.273Z,5.07
2023-04-28T03:27:05.895Z,5.28
2023-04-28T03:29:33.648Z,6.12
2023-04-28T03:32:01.631Z,6.50
2023-04-28T03:34:29.231Z,5.22
2023-04-28T03:36:56.568Z,5.78
2023-04-28T03:39:25.902Z,5.78
2023-04-28T03:41:53.277Z,5.90
2023-04-28T03:44:33.193Z,5.85
2023-04-28T03:47:01.504Z,5.20
2023-04-28T03:49:29.147Z,5.90
2023-04-28T03:51:56.202Z,5.32
2023-04-28T03:54:23.544Z,4.47
2023-04-28T03:56:50.742Z,5.37
2023-04-28T03:59:18.010Z,7.18
2023-04-28T04:01:45.477Z,7.30
2023-04-28T04:04:13.342Z,7.30
2023-04-28T04:06:40.732Z,6.40
2023-04-28T04:09:08.912Z,5.75
2023-04-28T04:11:36.238Z,6.12
2023-04-28T04:14:03.403Z,5.30
2023-04-28T04:16:30.770Z,5.40
2023-04-28T04:18:59.918Z,6.60
2023-04-28T04:21:28.008Z,7.72
2023-04-28T04:23:55.578Z,6.43
2023-04-28T04:26:23.495Z,6.80
2023-04-28T04:28:50.880Z,9.18
2023-04-28T04:31:19.720Z,8.75
2023-04-28T04:33:47.648Z,8.30
2023-04-28T04:36:15.306Z,8.82
2023-04-28T04:38:42.438Z,8.02
2023-04-28T04:41:10.339Z,8.05
2023-04-28T04:43:37.377Z,7.28
2023-04-28T04:46:04.715Z,6.37
2023-04-28T04:48:32.304Z,5.62
2023-04-28T04:50:59.336Z,7.37
2023-04-28T04:53:26.533Z,5.65
2023-04-28T04:55:54.996Z,6.37
2023-04-28T04:58:22.472Z,6.25
2023-04-28T05:00:51.807Z,5.95
2023-04-28T05:03:19.213Z,5.45
2023-04-28T05:05:46.527Z,5.43
2023-04-28T05:08:14.146Z,5.22
2023-04-28T05:10:41.606Z,5.43
2023-04-28T05:13:10.393Z,4.75
2023-04-28T05:15:38.172Z,5.57
2023-04-28T05:18:11.033Z,5.25
2023-04-28T05:20:38.336Z,4.45
2023-04-28T05:23:06.787Z,4.78
2023-04-28T05:25:34.224Z,4.35
2023-04-28T05:28:07.243Z,5.70
2023-04-28T05:30:34.754Z,4.93
2023-04-28T05:33:02.005Z,4.05
2023-04-28T05:35:31.139Z,4.37
2023-04-28T05:37:59.325Z,4.30
2023-04-28T05:40:26.924Z,4.95
2023-04-28T05:42:55.124Z,3.87
2023-04-28T05:45:22.418Z,4.57
2023-04-28T05:47:50.162Z,3.47
2023-04-28T05:50:17.414Z,4.03
2023-04-28T05:52:45.844Z,3.58
2023-04-28T05:55:13.464Z,3.55
2023-04-28T05:57:49.713Z,4.15
2023-04-28T06:00:20.512Z,3.47
2023-04-28T06:02:48.732Z,3.33
2023-04-28T06:05:16.567Z,3.58
2023-04-28T06:07:44.587Z,3.35
2023-04-28T06:10:12.059Z,2.80
2023-04-28T06:12:39.525Z,3.33
2023-04-28T06:15:07.314Z,4.10
2023-04-28T06:17:35.071Z,5.03
2023-04-28T06:20:02.199Z,5.80
2023-04-28T06:22:29.296Z,3.40
2023-04-28T06:24:56.634Z,3.17
2023-04-28T06:27:28.153Z,3.90
2023-04-28T06:29:56.413Z,3.42
2023-04-28T06:32:23.920Z,3.35
2023-04-28T06:34:52.103Z,2.85
2023-04-28T06:37:19.183Z,3.08
2023-04-28T06:39:48.408Z,2.87
2023-04-28T06:42:18.472Z,3.28
2023-04-28T06:44:50.897Z,2.95
2023-04-28T06:47:18.060Z,3.10
2023-04-28T06:49:47.333Z,4.00
2023-04-28T06:52:14.821Z,3.50
2023-04-28T06:54:42.200Z,4.00
2023-04-28T06:57:09.504Z,4.68
2023-04-28T06:59:37.451Z,4.87
2023-04-28T07:02:04.543Z,4.40
2023-04-28T07:04:31.642Z,4.68
2023-04-28T07:06:59.117Z,4.70
2023-04-28T07:09:26.332Z,5.37
2023-04-28T07:11:54.045Z,4.43
2023-04-28T07:14:21.485Z,5.68
2023-04-28T07:16:48.741Z,4.93
2023-04-28T07:19:16.371Z,6.30
2023-04-28T07:21:44.474Z,4.30
2023-04-28T07:24:11.567Z,4.78
2023-04-28T07:26:38.727Z,5.75
2023-04-28T07:29:06.377Z,5.10
2023-04-28T07:31:33.453Z,5.03
2023-04-28T07:34:00.973Z,5.32
2023-04-28T07:36:28.359Z,5.10
2023-04-28T07:38:55.693Z,5.70
2023-04-28T07:41:23.868Z,5.50
2023-04-28T07:43:51.425Z,5.57
2023-04-28T07:46:18.794Z,4.53
2023-04-28T07:48:46.310Z,6.05
2023-04-28T07:51:13.643Z,5.70
2023-04-28T07:53:40.758Z,5.25
2023-04-28T07:56:08.284Z,4.90
2023-04-28T07:58:36.306Z,5.53
2023-04-28T08:01:03.483Z,5.53
2023-04-28T08:03:31.063Z,5.47
2023-04-28T08:05:58.937Z,5.30
2023-04-28T08:08:26.477Z,5.30
2023-04-28T08:10:54.946Z,4.90
2023-04-28T08:13:21.988Z,6.03
2023-04-28T08:15:49.599Z,6.32
2023-04-28T08:18:17.212Z,6.57
2023-04-28T08:20:44.276Z,6.03
2023-04-28T08:23:11.657Z,6.78
2023-04-28T08:25:39.026Z,4.95
2023-04-28T08:28:06.424Z,6.68
2023-04-28T08:30:33.820Z,4.40
2023-04-28T08:33:01.156Z,6.35
2023-04-28T08:35:28.273Z,6.15
2023-04-28T08:37:55.499Z,5.00
2023-04-28T08:40:24.305Z,4.00
2023-04-28T08:42:51.445Z,3.80
2023-04-28T08:45:18.531Z,4.15
2023-04-28T08:47:49.874Z,5.03
2023-04-28T08:50:22.255Z,5.32
2023-04-28T08:52:52.773Z,4.12
2023-04-28T08:55:20.413Z,4.18
2023-04-28T08:57:54.799Z,4.53
2023-04-28T09:00:22.225Z,5.30
2023-04-28T09:02:50.033Z,3.85
2023-04-28T09:05:17.378Z,4.25
2023-04-28T09:07:48.846Z,4.50
2023-04-28T09:10:18.157Z,3.08
2023-04-28T09:12:46.619Z,3.70
2023-04-28T09:15:32.580Z,2.60
2023-04-28T09:18:03.949Z,2.50
2023-04-28T09:20:33.027Z,2.97
2023-04-28T09:23:17.934Z,2.78
2023-04-28T09:26:06.466Z,3.80
2023-04-28T09:28:36.775Z,2.80
2023-04-28T09:31:04.350Z,3.03
2023-04-28T09:33:31.614Z,3.80
2023-04-28T09:35:59.023Z,3.30
2023-04-28T09:38:26.474Z,2.25
2023-04-28T09:41:00.134Z,2.92
2023-04-28T09:43:29.288Z,3.30
2023-04-28T09:45:58.542Z,2.95
2023-04-28T09:48:30.806Z,3.00
2023-04-28T09:50:59.932Z,3.08
2023-04-28T09:53:28.337Z,2.65
2023-04-28T09:55:58.418Z,2.85
2023-04-28T09:58:27.479Z,3.97
2023-04-28T10:01:00.030Z,3.92
2023-04-28T10:03:30.362Z,4.90
2023-04-28T10:05:59.114Z,3.58
2023-04-28T10:08:29.952Z,3.53
2023-04-28T10:10:57.871Z,3.35
2023-04-28T10:13:25.397Z,4.07
2023-04-28T10:15:55.768Z,6.37
2023-04-28T10:18:25.085Z,4.10
2023-04-28T10:21:01.082Z,4.18
2023-04-28T10:23:55.223Z,4.55
2023-04-28T10:26:36.408Z,3.58
2023-04-28T10:29:03.982Z,3.60
2023-04-28T10:31:31.082Z,3.60
2023-04-28T10:34:25.464Z,3.87
2023-04-28T10:36:55.077Z,4.37
2023-04-28T10:39:22.160Z,3.35
2023-04-28T10:41:49.494Z,3.15
2023-04-28T10:44:29.150Z,2.97
2023-04-28T10:47:10.343Z,2.60
2023-04-28T10:49:58.904Z,2.35
2023-04-28T10:52:49.491Z,2.22
2023-04-28T10:55:40.269Z,2.28
2023-04-28T10:58:17.352Z,2.50
2023-04-28T11:00:48.173Z,2.83
2023-04-28T11:03:37.364Z,2.58
2023-04-28T11:06:27.155Z,2.50
2023-04-28T11:08:55.928Z,3.08
2023-04-28T11:11:27.722Z,2.60
2023-04-28T11:14:18.118Z,2.20
2023-04-28T11:16:53.691Z,2.17
2023-04-28T11:19:22.956Z,2.50
2023-04-28T11:21:51.432Z,2.17
2023-04-28T11:24:19.968Z,2.12
2023-04-28T11:26:47.300Z,2.65
2023-04-28T11:29:17.711Z,3.00
2023-04-28T11:31:51.721Z,2.47
2023-04-28T11:34:21.594Z,2.47
2023-04-28T11:36:48.590Z,2.12
2023-04-28T11:39:16.022Z,2.50
2023-04-28T11:41:45.116Z,2.28
2023-04-28T11:44:15.190Z,2.37
2023-04-28T11:47:02.794Z,3.08
2023-04-28T11:49:33.769Z,2.67
2023-04-28T11:52:08.032Z,3.25
2023-04-28T11:54:36.129Z,3.15
2023-04-28T11:57:05.088Z,2.40
2023-04-28T11:59:34.247Z,2.83
2023-04-28T12:02:06.895Z,2.58
2023-04-28T12:04:44.549Z,2.83
2023-04-28T12:07:16.773Z,3.28
2023-04-28T12:09:49.866Z,2.37
2023-04-28T12:12:40.114Z,2.62
2023-04-28T12:15:13.194Z,2.35
2023-04-28T12:17:42.346Z,2.58
2023-04-28T12:20:30.310Z,2.33
2023-04-28T12:22:57.813Z,2.47
2023-04-28T12:25:25.086Z,2.60
2023-04-28T12:28:05.491Z,2.60
2023-04-28T12:30:42.590Z,2.22
2023-04-28T12:33:31.383Z,2.20
2023-04-28T12:35:59.095Z,2.78
2023-04-28T12:38:27.198Z,2.35
2023-04-28T12:40:55.141Z,3.03
2023-04-28T12:43:24.142Z,2.47
2023-04-28T12:45:53.569Z,2.50
2023-04-28T12:48:21.399Z,2.40
2023-04-28T12:50:48.732Z,2.53
2023-04-28T12:53:15.802Z,2.12
2023-04-28T12:55:42.902Z,2.25
2023-04-28T12:58:10.354Z,2.37
2023-04-28T13:00:37.850Z,1.60
2023-04-28T13:03:05.127Z,2.10
2023-04-28T13:05:34.956Z,2.22
2023-04-28T13:08:02.192Z,2.70
2023-04-28T13:10:29.772Z,2.53
2023-04-28T13:12:57.290Z,2.87
2023-04-28T13:15:24.896Z,2.22
2023-04-28T13:17:52.175Z,2.35
2023-04-28T13:20:19.679Z,2.65
2023-04-28T13:22:46.767Z,2.28
2023-04-28T13:25:14.022Z,2.35
2023-04-28T13:27:43.188Z,2.60
2023-04-28T13:30:11.487Z,2.15
2023-04-28T13:32:38.689Z,2.87
2023-04-28T13:35:06.855Z,3.00
2023-04-28T13:37:33.958Z,2.45
2023-04-28T13:40:04.166Z,2.42
2023-04-28T13:42:31.806Z,3.00
2023-04-28T13:44:58.890Z,2.45
2023-04-28T13:47:26.738Z,3.03
2023-04-28T13:49:54.188Z,2.85
2023-04-28T13:52:22.478Z,3.40
2023-04-28T13:54:49.838Z,2.83
2023-04-28T13:57:17.579Z,5.78
2023-04-28T13:59:45.566Z,3.12
2023-04-28T14:02:12.683Z,3.03
2023-04-28T14:04:40.472Z,3.62
2023-04-28T14:07:08.132Z,3.62
2023-04-28T14:09:35.300Z,3.55
2023-04-28T14:12:02.968Z,2.60
2023-04-28T14:14:30.001Z,3.50
2023-04-28T14:16:57.200Z,2.75
2023-04-28T14:19:26.991Z,4.68
2023-04-28T14:21:54.035Z,3.55
2023-04-28T14:24:21.560Z,3.05
2023-04-28T14:26:49.592Z,2.70
2023-04-28T14:29:16.718Z,3.10
2023-04-28T14:31:43.798Z,3.90
2023-04-28T14:34:12.133Z,4.05
2023-04-28T14:36:39.184Z,3.72
2023-04-28T14:39:06.674Z,3.33
2023-04-28T14:41:34.004Z,2.95
2023-04-28T14:44:01.435Z,2.72
2023-04-28T14:46:28.624Z,4.00
2023-04-28T14:48:56.840Z,2.72
2023-04-28T14:51:24.289Z,3.08
2023-04-28T14:53:51.391Z,2.83
2023-04-28T14:56:20.445Z,2.90
2023-04-28T14:58:48.528Z,3.22
2023-04-28T15:01:16.105Z,3.28
2023-04-28T15:03:43.738Z,2.50
2023-04-28T15:06:12.009Z,2.60
2023-04-28T15:08:40.539Z,2.47
2023-04-28T15:11:08.231Z,2.92
2023-04-28T15:13:36.006Z,2.87
2023-04-28T15:16:03.386Z,2.92
2023-04-28T15:18:31.095Z,2.40
2023-04-28T15:20:58.385Z,2.97
2023-04-28T15:23:25.625Z,4.25
2023-04-28T15:25:54.145Z,2.90
2023-04-28T15:28:22.125Z,2.95
2023-04-28T15:30:49.234Z,3.20
2023-04-28T15:33:19.669Z,2.95
2023-04-28T15:35:47.200Z,2.78
2023-04-28T15:38:14.607Z,4.22
2023-04-28T15:40:43.726Z,3.17
2023-04-28T15:43:10.913Z,2.72
2023-04-28T15:45:38.867Z,3.05
2023-04-28T15:48:06.766Z,3.28
2023-04-28T15:50:34.017Z,3.58
2023-04-28T15:53:01.462Z,3.70
2023-04-28T15:55:28.880Z,3.28
2023-04-28T15:57:56.187Z,3.33
2023-04-28T16:00:23.386Z,3.95
2023-04-28T16:02:50.984Z,3.90
2023-04-28T16:05:18.213Z,3.80
2023-04-28T16:07:46.015Z,3.45
2023-04-28T16:10:15.347Z,4.25
2023-04-28T16:12:43.207Z,4.70
2023-04-28T16:15:12.304Z,4.40
2023-04-28T16:17:40.881Z,4.55
2023-04-28T16:20:09.956Z,3.90
2023-04-28T16:22:37.964Z,4.32
2023-04-28T16:25:06.494Z,5.20
2023-04-28T16:27:34.882Z,5.70
2023-04-28T16:30:02.301Z,4.53
2023-04-28T16:32:30.220Z,4.72
2023-04-28T16:34:57.862Z,4.43
2023-04-28T16:37:25.537Z,4.18
2023-04-28T16:39:53.077Z,5.20
2023-04-28T16:42:23.104Z,5.28
2023-04-28T16:44:52.440Z,4.43
2023-04-28T16:47:20.989Z,4.32
2023-04-28T16:49:48.295Z,4.32
2023-04-28T16:52:16.683Z,4.50
2023-04-28T16:54:44.345Z,5.22
2023-04-28T16:57:11.527Z,4.62
2023-04-28T16:59:38.639Z,4.62
2023-04-28T17:02:06.717Z,4.25
2023-04-28T17:04:34.873Z,4.50
2023-04-28T17:07:05.416Z,4.57
2023-04-28T17:09:33.435Z,5.03
2023-04-28T17:12:01.141Z,5.15
2023-04-28T17:14:28.335Z,5.90
2023-04-28T17:16:55.904Z,5.62
2023-04-28T17:19:23.142Z,5.32
2023-04-28T17:21:52.698Z,5.68
2023-04-28T17:24:20.141Z,5.18
2023-04-28T17:26:47.261Z,4.87
2023-04-28T17:29:14.291Z,5.20
2023-04-28T17:31:41.975Z,4.45
2023-04-28T17:34:09.101Z,5.57
2023-04-28T17:36:36.512Z,5.60
2023-04-28T17:39:04.608Z,6.03
2023-04-28T17:41:31.987Z,5.60
2023-04-28T17:43:59.008Z,6.37
2023-04-28T17:46:26.392Z,6.80
2023-04-28T17:48:53.451Z,7.70
2023-04-28T17:51:21.030Z,7.80
2023-04-28T17:53:48.798Z,7.43
2023-04-28T17:56:16.341Z,6.50
2023-04-28T17:58:43.495Z,6.40
2023-04-28T18:01:10.996Z,6.15
2023-04-28T18:03:39.147Z,5.78
2023-04-28T18:06:08.047Z,7.12
2023-04-28T18:08:36.869Z,8.07
2023-04-28T18:11:05.080Z,7.47
2023-04-28T18:13:33.208Z,7.40
2023-04-28T18:16:00.928Z,8.55
2023-04-28T18:18:30.553Z,8.10
2023-04-28T18:20:59.876Z,7.78
2023-04-28T18:23:27.129Z,7.60
2023-04-28T18:25:54.659Z,7.90
2023-04-28T18:28:21.876Z,8.32
2023-04-28T18:30:49.320Z,8.18
2023-04-28T18:33:23.038Z,7.45
2023-04-28T18:36:01.882Z,8.68
2023-04-28T18:38:30.971Z,8.98
2023-04-28T18:40:58.298Z,9.90
2023-04-28T18:43:25.938Z,10.05
2023-04-28T18:45:53.451Z,10.77
2023-04-28T18:48:21.884Z,10.07
2023-04-28T18:50:49.135Z,10.00
2023-04-28T18:53:17.414Z,8.68
2023-04-28T18:55:44.867Z,8.13
2023-04-28T18:58:12.030Z,8.15
2023-04-28T19:00:39.612Z,7.68
2023-04-28T19:03:06.867Z,7.90
2023-04-28T19:05:34.540Z,9.02
2023-04-28T19:08:02.063Z,9.48
2023-04-28T19:10:29.188Z,9.63
2023-04-28T19:12:56.317Z,9.25
2023-04-28T19:15:24.413Z,10.60
2023-04-28T19:17:51.980Z,9.38
2023-04-28T19:20:19.335Z,10.38
2023-04-28T19:22:47.160Z,9.38
2023-04-28T19:25:15.249Z,9.48
2023-04-28T19:27:43.506Z,9.82
2023-04-28T19:30:14.797Z,10.75
2023-04-28T19:32:42.406Z,11.57
2023-04-28T19:35:09.939Z,10.35
2023-04-28T19:37:37.401Z,10.00
2023-04-28T19:40:05.039Z,10.63
2023-04-28T19:42:33.445Z,11.05
2023-04-28T19:45:01.019Z,11.10
2023-04-28T19:47:30.442Z,10.07
2023-04-28T19:49:57.631Z,9.60
2023-04-28T19:52:25.334Z,10.23
2023-04-28T19:54:52.454Z,9.68
2023-04-28T19:57:20.155Z,8.32
2023-04-28T19:59:49.213Z,9.40
2023-04-28T20:02:17.244Z,9.48
2023-04-28T20:04:45.082Z,8.77
2023-04-28T20:07:12.440Z,8.95
2023-04-28T20:09:39.664Z,9.45
2023-04-28T20:12:09.034Z,8.15
2023-04-28T20:14:37.220Z,8.45
2023-04-28T20:17:05.535Z,9.43
2023-04-28T20:19:33.217Z,9.07
2023-04-28T20:22:02.929Z,7.80
2023-04-28T20:24:30.216Z,9.30
2023-04-28T20:26:58.661Z,8.55
2023-04-28T20:29:27.138Z,7.75
2023-04-28T20:31:54.253Z,6.70
2023-04-28T20:34:22.181Z,8.15
2023-04-28T20:36:49.360Z,7.50
2023-04-28T20:39:16.768Z,6.80
2023-04-28T20:41:44.199Z,6.68
2023-04-28T20:44:11.937Z,8.02
2023-04-28T20:46:39.473Z,7.00
2023-04-28T20:49:08.129Z,6.62
2023-04-28T20:51:37.275Z,6.97
2023-04-28T20:54:04.541Z,6.05
2023-04-28T20:56:31.904Z,7.30
2023-04-28T20:58:59.211Z,5.80
2023-04-28T21:01:26.529Z,6.85
2023-04-28T21:03:54.014Z,7.28
2023-04-28T21:06:21.128Z,5.93
2023-04-28T21:08:48.184Z,6.40
2023-04-28T21:11:17.377Z,6.15
2023-04-28T21:13:45.759Z,6.20
2023-04-28T21:16:20.622Z,6.97
2023-04-28T21:18:49.413Z,6.85
2023-04-28T21:21:17.409Z,6.00
2023-04-28T21:23:45.643Z,5.32
2023-04-28T21:26:13.462Z,5.97
2023-04-28T21:28:41.626Z,5.45
2023-04-28T21:31:09.821Z,5.43
2023-04-28T21:33:37.429Z,5.22
2023-04-28T21:36:09.383Z,5.93
2023-04-28T21:38:39.437Z,6.47
2023-04-28T21:41:07.677Z,6.03
2023-04-28T21:43:35.056Z,6.10
2023-04-28T21:46:02.516Z,5.95
2023-04-28T21:48:29.582Z,6.35
2023-04-28T21:50:56.974Z,6.60
2023-04-28T21:53:24.349Z,6.68
2023-04-28T21:55:51.458Z,6.50
2023-04-28T21:58:18.462Z,6.10
2023-04-28T22:00:49.076Z,6.10
2023-04-28T22:03:16.846Z,5.47
2023-04-28T22:05:45.078Z,5.82
2023-04-28T22:08:13.331Z,5.72
2023-04-28T22:10:40.969Z,4.80
2023-04-28T22:13:08.052Z,5.25
2023-04-28T22:15:35.252Z,4.50
2023-04-28T22:18:02.684Z,4.80
2023-04-28T22:20:29.746Z,5.60
2023-04-28T22:22:57.657Z,5.90
2023-04-28T22:25:25.767Z,6.00
2023-04-28T22:27:52.876Z,6.70
2023-04-28T22:30:19.995Z,5.82
2023-04-28T22:32:47.758Z,6.12
2023-04-28T22:35:16.743Z,7.70
2023-04-28T22:37:44.209Z,6.90
2023-04-28T22:40:11.957Z,7.00
2023-04-28T22:42:40.617Z,6.45
2023-04-28T22:45:10.257Z,6.90
2023-04-28T22:47:43.526Z,6.10
2023-04-28T22:50:11.484Z,5.97
2023-04-28T22:52:39.246Z,7.22
2023-04-28T22:55:06.735Z,6.47
2023-04-28T22:57:34.054Z,7.50
2023-04-28T23:00:02.223Z,6.18
2023-04-28T23:02:29.689Z,6.15
2023-04-28T23:04:57.425Z,5.75
2023-04-28T23:07:25.480Z,5.85
2023-04-28T23:09:52.732Z,6.28
2023-04-28T23:12:20.165Z,6.05
2023-04-28T23:14:47.500Z,4.47
2023-04-28T23:17:14.716Z,5.12
2023-04-28T23:19:42.023Z,5.75
2023-04-28T23:22:09.436Z,5.05
2023-04-28T23:24:37.978Z,4.43
2023-04-28T23:27:05.317Z,4.60
2023-04-28T23:29:32.969Z,5.12
2023-04-28T23:32:00.105Z,5.07
2023-04-28T23:34:28.006Z,5.28
2023-04-28T23:36:55.369Z,5.32
2023-04-28T23:39:22.384Z,5.28
2023-04-28T23:41:49.371Z,5.18
2023-04-28T23:44:17.245Z,5.10
2023-04-28T23:46:44.325Z,4.82
2023-04-28T23:49:11.459Z,5.43
2023-04-28T23:51:40.921Z,5.65
2023-04-28T23:54:09.251Z,4.97
2023-04-28T23:56:36.261Z,4.40
2023-04-28T23:59:04.297Z,4.43
